Fredonia, Texas
Current Conditions -  °F | °C
As of 8:55 PM on Friday 26 Dec 2014 (Local Time) from KBBD Reporting Station
Clear Clear  
Wind Chill: 57°   Ceiling: Unl
Heat Index: 57°   Visibility: 10mi
Dew Point: 52°   Wind: 6mph
Humidity: 82%   Direction: 140°SE
Pressure: 29.93"   Gusts: NA
Location:  30.93°N, 99.11°W
Report Text: KBBD 270255Z AUTO 14005KT 10SM CLR 14/11 A2993 RMK
Loading
Personal Weather Stations






























Interactive Weather Map New forecast layout! Learn more

10-Day Weather Forecast

Advertisements
Track Severe Weather on mobile